Latest Weather Observations for Bourke

IDN60801

Issued at 9:05 am EDT Monday 24 November 2014 (issued every 30 minutes, with the page automatically refreshed every 10 minutes)

About weather observations | Map of weather stations | Latest weather observations for NSW | Other Formats
Station Details ID: 048245 Name: BOURKE AIRPORT AWS Lat: -30.04 Lon: 145.95 Height: 107.3 m
Data from the previous 72 hours. | See also: Recent months at Bourke
Date/Time
EDT
Temp
°C
App
Temp
°C
Dew
Point
Rel
Hum
%
Delta-T
°C
Wind Press
QNH
hPa
Press
MSL
hPa
Rain
since 9 am
mm
Dir
 
Spd
km/h
Gust
km/h
Spd
kts
Gust
kts
24/09:00am 32.4 29.7 11.6 28 12.3 W 17 24 9 13 1011.0 1010.4 1.2
24/08:30am 31.2 28.7 11.1 29 11.7 WSW 15 20 8 11 1010.4 1009.8 1.2
24/08:00am 30.5 28.9 11.5 31 11.1 W 11 15 6 8 1010.0 1009.4 1.2
24/07:30am 29.5 27.6 10.6 31 10.8 WSW 11 17 6 9 1009.6 1009.0 1.2
24/07:00am 28.5 26.8 11.1 34 10.0 WSW 11 17 6 9 1009.2 1008.7 1.2
24/06:30am 27.8 27.0 10.9 35 9.6 NNW 6 9 3 5 1008.9 1008.4 1.2
24/06:00am 28.4 27.0 12.3 37 9.4 SSE 11 17 6 9 1008.7 1008.2 1.2
24/05:30am 26.7 26.6 13.4 43 7.9 N 6 7 3 4 1008.0 1007.5 1.2
24/05:00am 26.7 26.3 11.2 38 8.9 W 4 6 2 3 1008.0 1007.5 1.2
24/04:30am 26.9 25.1 9.3 33 9.7 NNW 9 11 5 6 1008.1 1007.6 1.2
24/04:00am 27.9 26.8 10.1 33 10.0 ENE 6 7 3 4 1008.0 1007.5 1.2
24/03:30am 29.7 28.5 10.3 30 11.1 E 7 9 4 5 1008.4 1007.9 1.2
24/03:00am 31.1 28.7 9.9 27 12.1 NE 13 17 7 9 1008.6 1008.1 1.2
24/02:30am 32.9 30.8 9.7 24 13.3 E 11 13 6 7 1008.8 1008.3 1.2
24/02:00am 33.9 30.1 9.9 23 13.9 ESE 20 26 11 14 1009.1 1008.6 1.2
24/01:30am 33.7 30.1 9.7 23 13.8 SE 19 22 10 12 1009.8 1009.2 1.2
24/01:00am 34.8 30.3 9.9 22 14.4 E 24 32 13 17 1010.9 1010.3 1.2
24/12:49am 35.0 29.2 9.4 21 14.7 NE 30 35 16 19 1011.1 1010.5 1.2
24/12:30am 33.1 31.6 10.4 25 13.2 NNE 9 13 5 7 1011.3 1010.7 1.2
24/12:12am 31.9 26.6 11.1 28 12.1 NNE 30 48 16 26 1011.3 1010.7 1.2
24/12:11am 31.4 26.6 11.7 29 11.6 NNE 28 44 15 24 1011.2 1010.6 1.2
24/12:00am 31.6 29.3 11.9 30 11.6 SSE 15 17 8 9 1009.2 1008.7 1.2
 
Date/Time
EDT
Temp
°C
App
Temp
°C
Dew
Point
Rel
Hum
%
Delta-T
°C
Wind Press
QNH
hPa
Press
MSL
hPa
Rain
since 9 am
mm
Dir
 
Spd
km/h
Gust
km/h
Spd
kts
Gust
kts
23/11:30pm 30.7 30.1 11.6 31 11.2 WSW 6 11 3 6 1009.4 1008.9 1.2
23/11:00pm 31.4 30.1 11.2 29 11.8 SSW 9 11 5 6 1009.2 1008.7 1.2
23/10:30pm 32.2 30.6 11.4 28 12.2 S 11 15 6 8 1008.8 1008.3 1.2
23/10:00pm 33.5 30.9 10.8 25 13.3 S 15 20 8 11 1008.7 1008.2 1.2
23/09:30pm 35.3 31.1 9.7 21 14.8 S 22 32 12 17 1008.6 1008.1 1.2
23/09:00pm 36.3 33.4 9.8 20 15.5 SSW 15 20 8 11 1008.1 1007.6 1.2
23/08:30pm 36.1 34.5 10.3 21 15.1 SSW 9 13 5 7 1007.9 1007.4 1.2
23/08:00pm 37.4 35.9 9.1 18 16.4 SSE 7 13 4 7 1007.3 1006.8 1.2
23/07:30pm 37.4 34.5 8.2 17 16.7 W 13 19 7 10 1007.5 1007.0 1.2
23/07:06pm 38.8 29.6 6.5 14 18.1 WSW 44 76 24 41 1007.6 1007.1 1.2
23/07:05pm 38.5 31.4 6.3 14 18.0 WNW 33 76 18 41 1007.5 1007.0 1.2
23/07:03pm 39.1 32.6 6.7 14 18.2 WNW 30 57 16 31 1007.7 1007.2 1.2
23/07:00pm 38.8 33.3 7.5 15 17.8 WNW 26 37 14 20 1007.9 1007.4 1.2
23/06:30pm 37.7 37.9 13.0 23 15.1 NW 4 7 2 4 1007.1 1006.6 1.2
23/06:00pm 38.2 35.2 12.7 21 15.6 SSE 20 32 11 17 1006.7 1006.2 1.2
23/05:30pm 37.0 33.1 15.5 28 13.6 SSE 30 44 16 24 1006.5 1006.0 1.2
23/05:00pm 35.9 30.5 12.2 24 14.3 WSW 32 43 17 23 1006.4 1005.9 0.0
23/04:57pm 38.1 32.8 7.0 15 17.5 W 24 41 13 22 1006.4 1005.9 0.0
23/04:30pm 44.1 41.8 5.7 10 21.8 S 7 9 4 5 1006.4 1005.9 0.0
23/04:00pm 43.7 39.4 5.4 10 21.7 NW 17 20 9 11 1006.7 1006.2 0.0
23/03:30pm 43.7 40.2 5.4 10 21.6 WNW 13 22 7 12 1007.2 1006.7 0.0
23/03:00pm 44.6 40.5 6.1 10 22.1 NNW 17 22 9 12 1007.7 1007.2 0.0
23/02:30pm 43.5 40.7 5.2 10 21.5 W 9 19 5 10 1008.1 1007.6 0.0
23/02:00pm 43.6 40.4 5.3 10 21.6 NW 11 19 6 10 1008.5 1008.0 0.0
23/01:30pm 43.8 39.6 5.5 10 21.6 NNE 17 26 9 14 1008.9 1008.4 0.0
23/01:00pm 44.5 40.0 6.0 10 22.0 NNW 19 33 10 18 1009.3 1008.8 0.0
23/12:30pm 43.1 38.2 4.9 10 21.3 NNW 20 35 11 19 1009.8 1009.2 0.0
23/12:00pm 42.7 37.2 6.0 11 20.8 NNW 24 33 13 18 1010.1 1009.5 0.0
23/11:30am 42.7 37.2 6.0 11 20.8 NW 24 33 13 18 1010.3 1009.7 0.0
23/11:00am 42.8 36.3 4.7 10 21.2 N 28 39 15 21 1010.2 1009.6 0.0
23/10:30am 42.7 35.5 3.1 9 21.5 N 30 43 16 23 1010.3 1009.7 0.0
23/10:00am 41.4 34.8 2.2 9 20.9 N 26 35 14 19 1010.4 1009.8 0.0
23/09:30am 39.9 33.4 2.5 10 19.8 N 26 39 14 21 1010.5 1009.9 0.0
23/09:00am 38.5 32.2 1.5 10 19.2 N 24 32 13 17 1010.5 1009.9 0.0
23/08:30am 36.1 30.7 2.2 12 17.5 N 20 24 11 13 1010.2 1009.6 0.0
23/08:00am 34.1 28.8 1.8 13 16.4 N 19 30 10 16 1010.2 1009.6 0.0
23/07:30am - - - - - NNE 19 26 10 14 1009.6 1009.0 0.0
23/07:00am 28.4 25.1 2.6 19 12.8 NE 9 11 5 6 1008.9 1008.4 0.0
23/06:30am 24.6 20.8 1.5 22 10.9 NE 11 13 6 7 1008.5 1008.0 0.0
23/06:00am 25.2 20.9 1.3 21 11.4 NE 13 15 7 8 1008.2 1007.7 0.0
23/05:30am 25.1 21.3 1.9 22 11.1 NE 11 13 6 7 1008.0 1007.5 0.0
23/05:00am 25.5 21.3 1.6 21 11.5 NE 13 15 7 8 1007.9 1007.4 0.0
23/04:30am 25.7 21.9 1.8 21 11.5 NE 11 13 6 7 1007.7 1007.2 0.0
23/04:00am 26.1 21.5 1.4 20 11.8 NE 15 15 8 8 1007.6 1007.1 0.0
23/03:30am 27.0 23.6 2.1 20 12.1 NE 9 11 5 6 1007.7 1007.2 0.0
23/03:00am 27.1 23.4 2.2 20 12.2 NE 11 13 6 7 1007.7 1007.2 0.0
23/02:30am 27.2 23.7 3.7 22 11.8 NE 11 13 6 7 1007.8 1007.3 0.0
23/02:00am 26.0 23.2 3.3 23 11.3 NE 7 9 4 5 1008.2 1007.7 0.0
23/01:30am 25.9 22.7 3.2 23 11.2 NE 9 11 5 6 1008.5 1008.0 0.0
23/01:00am 26.4 23.3 3.6 23 11.4 ENE 9 11 5 6 1008.8 1008.3 0.0
23/12:30am 26.6 23.2 3.8 23 11.4 ENE 11 13 6 7 1008.9 1008.4 0.0
23/12:00am 27.7 24.9 3.4 21 12.2 NE 7 9 4 5 1009.2 1008.7 0.0
 
Date/Time
EDT
Temp
°C
App
Temp
°C
Dew
Point
Rel
Hum
%
Delta-T
°C
Wind Press
QNH
hPa
Press
MSL
hPa
Rain
since 9 am
mm
Dir
 
Spd
km/h
Gust
km/h
Spd
kts
Gust
kts
22/11:30pm 27.6 25.6 6.4 26 11.2 ENE 6 7 3 4 1009.4 1008.9 0.0
22/11:00pm 28.2 26.6 2.4 19 12.8 CALM 0 0 0 0 1009.6 1009.0 0.0
22/10:30pm 28.7 26.9 1.3 17 13.3 CALM 0 0 0 0 1009.6 1009.0 0.0
22/10:00pm 29.8 28.0 1.3 16 14.0 CALM 0 0 0 0 1009.4 1008.9 0.0
22/09:30pm 30.3 28.6 1.7 16 14.2 CALM 0 0 0 0 1009.2 1008.7 0.0
22/09:00pm 32.4 30.8 2.5 15 15.2 CALM 0 0 0 0 1008.8 1008.3 0.0
22/08:30pm 34.0 32.3 1.7 13 16.4 CALM 0 0 0 0 1008.5 1008.0 0.0
22/08:00pm 36.2 33.4 2.3 12 17.6 ESE 6 9 3 5 1008.1 1007.6 0.0
22/07:30pm 39.4 36.7 3.5 11 19.3 S 7 11 4 6 1007.9 1007.4 0.0
22/07:00pm 40.4 36.8 2.9 10 20.1 S 11 15 6 8 1007.7 1007.2 0.0
22/06:30pm 40.7 36.7 3.1 10 20.2 SSE 13 17 7 9 1007.5 1007.0 0.0
22/06:00pm 41.0 38.4 3.4 10 20.4 NNE 6 11 3 6 1007.5 1007.0 0.0
22/05:30pm 41.2 37.7 3.5 10 20.4 S 11 22 6 12 1007.5 1007.0 0.0
22/05:00pm 41.1 36.8 3.4 10 20.4 S 15 24 8 13 1007.7 1007.2 0.0
22/04:30pm 41.5 37.3 3.7 10 20.6 S 15 26 8 14 1007.8 1007.3 0.0
22/04:00pm 41.4 37.9 3.7 10 20.6 S 11 24 6 13 1008.1 1007.6 0.0
22/03:30pm 40.6 37.4 3.1 10 20.2 W 9 17 5 9 1008.4 1007.9 0.0
22/03:00pm 39.8 36.4 3.8 11 19.5 N 11 20 6 11 1008.9 1008.4 0.0
22/02:30pm 40.7 37.8 4.5 11 19.9 SW 9 15 5 8 1009.3 1008.8 0.0
22/02:00pm 40.0 36.2 4.0 11 19.6 WSW 13 20 7 11 1009.9 1009.3 0.0
22/01:30pm 39.8 36.4 3.8 11 19.5 W 11 19 6 10 1010.2 1009.6 0.0
22/01:00pm 39.1 36.2 4.5 12 18.9 N 9 17 5 9 1010.6 1010.0 0.0
22/12:30pm 37.9 34.6 4.7 13 18.0 N 11 19 6 10 1011.0 1010.4 0.0
22/12:00pm 37.7 34.4 4.6 13 17.9 NW 11 20 6 11 1011.4 1010.8 0.0
22/11:30am 36.7 33.8 4.9 14 17.2 NNW 9 17 5 9 1011.4 1010.8 0.0
22/11:00am 36.8 33.8 5.9 15 17.0 N 11 22 6 12 1011.6 1011.0 0.0
22/10:30am 36.6 32.8 7.6 17 16.4 ENE 17 26 9 14 1011.8 1011.2 0.0
22/10:00am 34.7 30.7 8.4 20 14.9 NE 19 26 10 14 1011.9 1011.3 0.0
22/09:30am 34.3 30.4 8.8 21 14.5 NE 19 24 10 13 1012.1 1011.6 0.0
22/09:00am 33.2 29.1 7.9 21 14.1 E 19 24 10 13 1012.1 1011.6 0.0
22/08:30am 31.9 28.1 7.5 22 13.4 E 17 26 9 14 1012.0 1011.5 0.0
22/08:00am 29.6 25.8 7.5 25 12.0 E 17 24 9 13 1011.7 1011.1 0.0
22/07:30am - - - - - ESE 11 13 6 7 1011.3 1010.7 0.0
22/07:00am - - - - - ESE 9 13 5 7 1011.1 1010.5 0.0
22/06:30am - - - - - SE 11 11 6 6 1010.8 1010.2 0.0
22/06:00am 23.2 19.6 5.1 31 9.1 SE 13 19 7 10 1010.5 1009.9 0.0
22/05:30am 23.6 20.1 5.5 31 9.2 SSE 13 15 7 8 1010.3 1009.7 0.0
22/05:00am 23.7 20.2 5.6 31 9.2 SSE 13 15 7 8 1010.0 1009.4 0.0
22/04:30am 24.4 21.0 5.7 30 9.6 SSE 13 15 7 8 1009.9 1009.3 0.0
22/04:00am 24.7 21.6 5.5 29 9.8 SSE 11 15 6 8 1009.7 1009.1 0.0
22/03:30am 24.8 21.3 5.6 29 9.8 SSE 13 13 7 7 1009.7 1009.1 0.0
22/03:00am 25.2 22.1 5.4 28 10.1 SSE 11 13 6 7 1009.8 1009.2 0.0
22/02:30am 26.7 23.2 5.6 26 10.9 SSE 13 17 7 9 1009.9 1009.3 0.0
22/02:00am 27.2 23.7 5.5 25 11.3 S 13 17 7 9 1010.0 1009.4 0.0
22/01:30am 27.9 24.0 5.5 24 11.7 S 15 17 8 9 1010.2 1009.6 0.0
22/01:00am 27.6 24.6 5.8 25 11.4 SSW 11 13 6 7 1010.5 1009.9 0.0
22/12:30am 27.4 24.6 5.1 24 11.5 SSW 9 11 5 6 1010.7 1010.1 0.0
22/12:00am 27.9 25.2 5.5 24 11.7 SW 9 11 5 6 1010.9 1010.3 0.0
 
Date/Time
EDT
Temp
°C
App
Temp
°C
Dew
Point
Rel
Hum
%
Delta-T
°C
Wind Press
QNH
hPa
Press
MSL
hPa
Rain
since 9 am
mm
Dir
 
Spd
km/h
Gust
km/h
Spd
kts
Gust
kts
21/11:30pm 28.7 26.0 5.5 23 12.1 SW 9 11 5 6 1010.9 1010.3 0.0
21/11:00pm 29.2 26.0 5.3 22 12.5 SW 11 13 6 7 1010.7 1010.1 0.0
21/10:30pm 29.6 26.5 5.6 22 12.6 SW 11 13 6 7 1010.6 1010.0 0.0
21/10:00pm 29.6 26.5 5.6 22 12.7 SW 11 13 6 7 1010.4 1009.8 0.0
21/09:30pm 30.5 27.6 6.4 22 12.9 WSW 11 15 6 8 1010.1 1009.5 0.0
21/09:00pm 32.4 29.5 6.6 20 14.0 WSW 11 15 6 8 1009.9 1009.3 0.0
21/08:30pm 33.4 30.1 6.6 19 14.6 WSW 13 19 7 10 1009.6 1009.0 0.0
21/08:00pm 34.2 30.9 6.5 18 15.2 WSW 13 20 7 11 1009.2 1008.7 0.0
21/07:30pm 35.6 31.8 5.9 16 16.2 WSW 15 20 8 11 1009.0 1008.5 0.0
21/07:00pm 36.3 32.1 5.5 15 16.8 SW 17 22 9 12 1008.6 1008.1 0.0
21/06:30pm 37.3 32.4 5.3 14 17.5 SW 20 28 11 15 1008.1 1007.6 0.0
21/06:00pm 37.3 32.7 6.3 15 17.2 SW 20 28 11 15 1007.9 1007.4 0.0
21/05:30pm 37.8 32.8 4.7 13 18.0 SW 20 30 11 16 1007.8 1007.3 0.0
21/05:00pm 37.1 31.8 5.2 14 17.4 SW 22 32 12 17 1007.9 1007.4 0.0
21/04:30pm 37.7 31.9 4.6 13 17.9 W 24 39 13 21 1007.9 1007.4 0.0
21/04:00pm 38.0 33.8 5.9 14 17.8 WNW 17 28 9 15 1007.9 1007.4 0.0
21/03:30pm 38.3 32.5 6.1 14 17.9 W 26 39 14 21 1008.3 1007.8 0.0
21/03:00pm 37.7 32.1 5.6 14 17.7 SW 24 35 13 19 1008.6 1008.1 0.0
21/02:30pm 37.9 32.8 5.8 14 17.7 WSW 22 35 12 19 1008.9 1008.4 0.0
21/02:00pm 38.4 33.6 7.2 15 17.7 WSW 22 39 12 21 1009.2 1008.7 0.0
21/01:30pm 37.3 31.9 6.3 15 17.2 WSW 24 37 13 20 1009.4 1008.9 0.0
21/01:00pm 36.3 32.5 7.4 17 16.2 SW 17 22 9 12 1009.9 1009.3 0.0
21/12:30pm 36.5 32.3 8.4 18 16.0 W 20 24 11 13 1010.1 1009.5 0.0
21/12:00pm 35.8 30.7 7.8 18 15.8 SSW 24 37 13 20 1010.4 1009.8 0.0
21/11:30am 35.3 31.3 8.9 20 15.1 WSW 20 30 11 16 1010.6 1010.0 0.0
21/11:00am 34.2 30.5 8.0 20 14.7 SW 17 30 9 16 1010.8 1010.2 0.0
21/10:30am 34.0 30.7 7.9 20 14.6 S 15 28 8 15 1010.9 1010.3 0.0
21/10:00am 32.9 29.1 7.7 21 14.0 S 17 24 9 13 1010.9 1010.3 0.0
21/09:30am 32.4 29.2 8.6 23 13.4 S 15 20 8 11 1010.9 1010.3 0.0

Other Formats:

Comma delimited format used in spreadsheet applications
http://www.bom.gov.au/fwo/IDN60801/IDN60801.94703.axf

JavaScript Object Notation format (JSON) in row-major order
http://www.bom.gov.au/fwo/IDN60801/IDN60801.94703.json